Woodbury, Texas
Current Conditions -  °F | °C
As of 2:15 PM on Thursday 30 Oct 2014 (Local Time) from KINJ Reporting Station
Clear Clear  
Wind Chill: 76°   Ceiling: Unl
Heat Index: 78°   Visibility: 10mi
Dew Point: 49°   Wind: 6mph
Humidity: 38%   Direction: 200°SSW
Pressure: 30.1"   Gusts: NA
Location:  32.0499°N, 97.1039°W
Report Text: KINJ 301915Z AUTO 20005KT 10SM CLR 25/10 A3010 RMK AO2 T02470096
Loading
Personal Weather Stations






























Interactive Weather Map New forecast layout! Learn more

10-Day Weather Forecast

Advertisements
Track Severe Weather on mobile